Argyle, Illinois
Current Conditions -  °F | °C
As of 4:54 PM on Thursday 27 Nov 2014 (Local Time) from KRFD Reporting Station
Scattered Clouds Scattered Clouds  
Wind Chill: 10°   Ceiling: Unl
Heat Index: 19°   Visibility: 10mi
Dew Point:   Wind: 7mph
Humidity: 65%   Direction: 320°NW
Pressure: 30.43"   Gusts: NA
Location:  42.3911°N, 88.9094°W
Report Text: KRFD 272254Z 32006KT 10SM SCT034 M07/M13 A3043 RMK AO2 SNE08B25E48 SLP316 P0000 T10721128
Loading
Personal Weather Stations






























Interactive Weather Map New forecast layout! Learn more

10-Day Weather Forecast

Advertisements
Track Severe Weather on mobile